Terminal Aerodrome Forecast
Issued by NWS

Current Version | Previous Version | Text Only | Print | Product List | Glossary On
Versions: 1 2 3 4 5 6 7 8 9 10 11 12 13 14 15
997
FTUS41 KPHI 311128
TAFPNE
TAF
KPNE 311128Z 3112/0112 00000KT 5SM BR SCT006
     FM311300 23003KT P6SM SCT200
     FM312000 20009KT P6SM SCT060 BKN200
     FM010500 18003KT P6SM -SHRA OVC060
     FM010900 36003KT 4SM -SHRA BR OVC015=

USA.gov is the U.S. government's official web portal to all federal, state and local government web resources and services.